Time;durP1;ratioP1;P1;durP2;ratioP2;P2;SDS_P1;SDS_P2;PMS_P1;PMS_P2;Temp;Humidity;BMP_temperature;BMP_pressure;BME280_temperature;BME280_humidity;BME280_pressure;Samples;Min_cycle;Max_cycle;Signal;HPM_P1;HPM_P2
2023/03/13 00:01:16;;;;;;;;;;;;;;;-140.72;100.00;53066.63;5063783;28;19920;-70
2023/03/13 00:03:42;;;;;;;;;;;;;;;-140.72;100.00;53066.63;5065561;28;19928;-70
2023/03/13 00:06:07;;;;;;;;;;;;;;;-140.72;100.00;53003.69;5068734;28;20379;-70
2023/03/13 00:08:33;;;;;;;;;;;;;;;-140.72;100.00;53056.47;5061127;28;19924;-70
2023/03/13 00:11:01;;;;;;;;;;;;;;;-140.72;100.00;53036.16;5058345;28;19965;-70
2023/03/13 00:13:26;;;;;;;;;;;;;;;-140.72;100.00;52983.41;5071891;28;19924;-70
2023/03/13 00:15:58;;;;;;;;;;;;;;;-140.72;100.00;53028.06;5083074;28;19916;-70
2023/03/13 00:18:23;;;;;;;;;;;;;;;-140.72;100.00;53068.66;5062279;28;20007;-70
2023/03/13 00:20:49;;;;;;;;;;;;;;;-140.72;100.00;53028.06;5089884;28;20722;-70
2023/03/13 00:23:14;;;;;;;;;;;;;;;-140.72;100.00;53046.31;5065099;28;19916;-70
2023/03/13 00:25:39;;;;;;;;;;;;;;;-140.72;100.00;53015.88;5054814;28;20019;-70
2023/03/13 00:28:05;;;;;;;;;;;;;;;-140.72;100.00;53024.00;5065262;28;19952;-70
2023/03/13 00:30:30;;;;;;;;;;;;;;;-140.72;100.00;52999.66;5074509;28;19955;-70
2023/03/13 00:32:55;;;;;;;;;;;;;;;-140.72;100.00;53042.25;5074663;28;19921;-70
2023/03/13 00:35:20;;;;;;;;;;;;;;;-140.72;100.00;53066.63;5074163;28;19923;-70
2023/03/13 00:37:45;;;;;;;;;;;;;;;-140.72;100.00;53034.16;5061678;28;19917;-70
2023/03/13 00:40:11;;;;;;;;;;;;;;;-140.72;100.00;53046.31;5073291;28;19928;-70
2023/03/13 00:42:36;;;;;;;;;;;;;;;-140.72;100.00;53028.06;5070688;28;19957;-70
2023/03/13 00:45:01;;;;;;;;;;;;;;;-140.72;100.00;53066.63;5064532;28;19920;-70
2023/03/13 00:47:27;;;;;;;;;;;;;;;-140.72;100.00;53052.41;5076715;28;19966;-70
2023/03/13 00:49:52;;;;;;;;;;;;;;;-140.72;100.00;53017.91;5060529;28;19917;-70
2023/03/13 00:52:17;;;;;;;;;;;;;;;-140.72;100.00;53015.88;5068494;28;20008;-70
2023/03/13 00:54:42;;;;;;;;;;;;;;;-140.72;100.00;53013.84;5064132;28;19960;-70
2023/03/13 00:57:08;;;;;;;;;;;;;;;-140.72;100.00;53042.25;5101097;28;19920;-70
2023/03/13 00:59:33;;;;;;;;;;;;;;;-140.72;100.00;53030.09;5098165;28;20334;-70
2023/03/13 01:01:58;;;;;;;;;;;;;;;-140.72;100.00;53030.09;5058182;28;20359;-70
2023/03/13 01:04:23;;;;;;;;;;;;;;;-140.72;100.00;53054.44;5065213;28;20367;-70
2023/03/13 01:06:49;;;;;;;;;;;;;;;-140.72;100.00;53007.75;5074479;28;20414;-70
2023/03/13 01:09:16;;;;;;;;;;;;;;;-140.72;100.00;53044.28;5073705;28;20206;-70
2023/03/13 01:11:42;;;;;;;;;;;;;;;-140.72;100.00;53068.66;5106142;28;19916;-70
2023/03/13 01:14:08;;;;;;;;;;;;;;;-140.72;100.00;52983.41;5068781;28;19920;-70
2023/03/13 01:16:34;;;;;;;;;;;;;;;-140.72;100.00;53050.38;5065853;28;20425;-71
2023/03/13 01:19:01;;;;;;;;;;;;;;;-140.72;100.00;53015.88;5058417;28;19948;-71
2023/03/13 01:21:26;;;;;;;;;;;;;;;-140.72;100.00;53017.91;5054345;28;19939;-70
2023/03/13 01:23:52;;;;;;;;;;;;;;;-140.72;100.00;53030.09;5065335;28;20010;-71
2023/03/13 01:26:18;;;;;;;;;;;;;;;-140.72;100.00;53019.94;5073948;28;19920;-70
2023/03/13 01:28:43;;;;;;;;;;;;;;;-140.72;100.00;53026.03;5065961;28;19965;-70
2023/03/13 01:31:09;;;;;;;;;;;;;;;-140.72;100.00;52979.34;5072260;28;19937;-70
2023/03/13 01:33:34;;;;;;;;;;;;;;;-140.72;100.00;53046.31;5073825;28;19916;-71
2023/03/13 01:36:00;;;;;;;;;;;;;;;-140.72;100.00;53015.88;5069863;28;19979;-71
2023/03/13 01:38:26;;;;;;;;;;;;;;;-140.72;100.00;52993.56;5057848;28;19921;-70
2023/03/13 01:40:51;;;;;;;;;;;;;;;-140.72;100.00;53013.84;5071837;28;19921;-70
2023/03/13 01:43:18;;;;;;;;;;;;;;;-140.72;100.00;53024.00;5072745;28;19920;-70
2023/03/13 01:46:01;;;;;;;;;;;;;;;-140.72;100.00;53019.94;5067908;28;19920;-70
2023/03/13 01:48:30;;;;;;;;;;;;;;;-140.72;100.00;53024.00;5101500;28;19916;-70
2023/03/13 01:50:58;;;;;;;;;;;;;;;-140.72;100.00;53052.41;5068722;28;19916;-71
2023/03/13 01:53:24;;;;;;;;;;;;;;;-140.72;100.00;53019.94;5060014;28;19921;-70
2023/03/13 01:55:50;;;;;;;;;;;;;;;-140.72;100.00;53044.28;5071182;28;19938;-70
2023/03/13 01:58:15;;;;;;;;;;;;;;;-140.72;100.00;53024.00;5072170;28;20402;-70
2023/03/13 02:00:42;;;;;;;;;;;;;;;-140.72;100.00;52991.53;5072926;28;19927;-71
2023/03/13 02:03:09;;;;;;;;;;;;;;;-140.72;100.00;53024.00;5077229;28;19948;-70
2023/03/13 02:05:35;;;;;;;;;;;;;;;-140.72;100.00;52997.63;5053690;28;19920;-71
2023/03/13 02:08:05;;;;;;;;;;;;;;;-140.72;100.00;53013.84;5066225;28;20298;-70
2023/03/13 02:10:33;;;;;;;;;;;;;;;-140.72;100.00;52987.47;5063782;28;19927;-70
2023/03/13 02:12:59;;;;;;;;;;;;;;;-140.72;100.00;52995.59;5043195;28;19943;-70
2023/03/13 02:15:26;;;;;;;;;;;;;;;-140.72;100.00;52999.66;5072853;28;19927;-70
2023/03/13 02:17:53;;;;;;;;;;;;;;;-140.72;100.00;53044.28;5065088;28;19920;-71
2023/03/13 02:20:22;;;;;;;;;;;;;;;-140.72;100.00;53009.78;5074136;28;20233;-71
2023/03/13 02:22:59;;;;;;;;;;;;;;;-140.72;100.00;53021.97;5072553;28;20304;-71
2023/03/13 02:25:24;;;;;;;;;;;;;;;-140.72;100.00;53034.16;5063499;28;19921;-71
2023/03/13 02:27:56;;;;;;;;;;;;;;;-140.72;100.00;53015.88;5070096;28;19916;-71
2023/03/13 02:30:22;;;;;;;;;;;;;;;-140.72;100.00;53032.13;5066554;28;20396;-70
2023/03/13 02:32:47;;;;;;;;;;;;;;;-140.72;100.00;53038.19;5068533;28;20011;-70
2023/03/13 02:35:15;;;;;;;;;;;;;;;-140.72;100.00;53032.13;5059428;28;20334;-70
2023/03/13 02:37:41;;;;;;;;;;;;;;;-140.72;100.00;53032.13;5065356;28;19917;-70
2023/03/13 02:40:25;;;;;;;;;;;;;;;-140.72;100.00;52981.38;5060242;28;19934;-70
2023/03/13 02:42:51;;;;;;;;;;;;;;;-140.72;100.00;53015.88;5072121;28;19923;-70
2023/03/13 02:45:17;;;;;;;;;;;;;;;-140.72;100.00;52979.34;5066377;28;19917;-70
2023/03/13 02:47:42;;;;;;;;;;;;;;;-140.72;100.00;53013.84;5071591;28;20008;-70
2023/03/13 02:50:08;;;;;;;;;;;;;;;-140.72;100.00;52995.59;5062411;28;20023;-70
2023/03/13 02:52:37;;;;;;;;;;;;;;;-140.72;100.00;53036.16;5072475;28;19920;-70
2023/03/13 02:55:23;;;;;;;;;;;;;;;-140.72;100.00;52987.47;5067200;28;20366;-71
2023/03/13 03:00:48;;;;;;;;;;;;;;;-140.72;100.00;52981.38;5069802;28;20387;-70
2023/03/13 03:03:13;;;;;;;;;;;;;;;-140.72;100.00;52995.59;5069726;28;19927;-71
2023/03/13 03:05:38;;;;;;;;;;;;;;;-140.72;100.00;53026.03;5062753;28;20312;-70
2023/03/13 03:08:03;;;;;;;;;;;;;;;-140.72;100.00;52975.28;5068178;28;19917;-70
2023/03/13 03:10:29;;;;;;;;;;;;;;;-140.72;100.00;52959.06;5063637;28;19917;-70
2023/03/13 03:12:55;;;;;;;;;;;;;;;-140.72;100.00;52963.13;5077576;28;19925;-71
2023/03/13 03:15:22;;;;;;;;;;;;;;;-140.72;100.00;52975.28;5070681;28;19927;-71
2023/03/13 03:17:47;;;;;;;;;;;;;;;-140.72;100.00;53003.69;5076243;28;19920;-70
2023/03/13 03:20:29;;;;;;;;;;;;;;;-140.72;100.00;52999.66;5087374;28;19916;-71
2023/03/13 03:22:54;;;;;;;;;;;;;;;-140.72;100.00;52979.34;5081510;28;19943;-70
2023/03/13 03:25:19;;;;;;;;;;;;;;;-140.72;100.00;52997.63;5070895;28;19916;-71
2023/03/13 03:27:45;;;;;;;;;;;;;;;-140.72;100.00;53007.75;5072841;28;19920;-71
2023/03/13 03:30:10;;;;;;;;;;;;;;;-140.72;100.00;52987.47;5074897;28;19916;-70
2023/03/13 03:32:35;;;;;;;;;;;;;;;-140.72;100.00;52999.66;5077090;28;19916;-71
2023/03/13 03:35:01;;;;;;;;;;;;;;;-140.72;100.00;53013.84;5069605;28;19917;-70
2023/03/13 03:37:26;;;;;;;;;;;;;;;-140.72;100.00;53017.91;5074766;28;19916;-70
2023/03/13 03:39:52;;;;;;;;;;;;;;;-140.72;100.00;53001.66;5076181;28;19969;-70
2023/03/13 03:42:17;;;;;;;;;;;;;;;-140.72;100.00;53048.34;5074359;28;19924;-70
2023/03/13 03:44:42;;;;;;;;;;;;;;;-140.72;100.00;53001.66;5074511;28;19969;-71
2023/03/13 03:47:07;;;;;;;;;;;;;;;-140.72;100.00;53001.66;5060334;28;20239;-71
2023/03/13 03:49:32;;;;;;;;;;;;;;;-140.72;100.00;52977.31;5072095;28;19920;-71
2023/03/13 03:51:58;;;;;;;;;;;;;;;-140.72;100.00;53005.72;5073516;28;19917;-71
2023/03/13 03:54:23;;;;;;;;;;;;;;;-140.72;100.00;53003.69;5075847;28;19917;-71
2023/03/13 03:56:48;;;;;;;;;;;;;;;-140.72;100.00;53040.22;5075728;28;19939;-71
2023/03/13 03:59:13;;;;;;;;;;;;;;;-140.72;100.00;52989.50;5073522;28;19966;-71
2023/03/13 04:01:39;;;;;;;;;;;;;;;-140.72;100.00;53003.69;5075803;28;20382;-71
2023/03/13 04:04:04;;;;;;;;;;;;;;;-140.72;100.00;53011.81;5074750;28;19920;-71
2023/03/13 04:06:29;;;;;;;;;;;;;;;-140.72;100.00;52991.53;5078410;28;19965;-71
2023/03/13 04:08:55;;;;;;;;;;;;;;;-140.72;100.00;52975.28;5065286;28;20390;-71
2023/03/13 04:11:20;;;;;;;;;;;;;;;-140.72;100.00;52989.50;5075471;28;20286;-71
2023/03/13 04:13:45;;;;;;;;;;;;;;;-140.72;100.00;52999.66;5068363;28;19970;-71
2023/03/13 04:16:11;;;;;;;;;;;;;;;-140.72;100.00;52995.59;5061204;28;19975;-71
2023/03/13 04:18:36;;;;;;;;;;;;;;;-140.72;100.00;52987.47;5074826;28;19927;-71
2023/03/13 04:21:02;;;;;;;;;;;;;;;-140.72;100.00;52971.22;5073966;28;19924;-71
2023/03/13 04:23:27;;;;;;;;;;;;;;;-140.72;100.00;52963.13;5067902;28;19920;-71
2023/03/13 04:25:53;;;;;;;;;;;;;;;-140.72;100.00;52955.00;5066187;28;19971;-71
2023/03/13 04:28:18;;;;;;;;;;;;;;;-140.72;100.00;52975.28;5074985;28;19923;-70
2023/03/13 04:30:43;;;;;;;;;;;;;;;-140.72;100.00;53026.03;5067491;28;19923;-70
2023/03/13 04:33:08;;;;;;;;;;;;;;;-140.72;100.00;53015.88;5075233;28;19923;-71
2023/03/13 04:35:34;;;;;;;;;;;;;;;-140.72;100.00;52997.63;5067250;28;19917;-71
2023/03/13 04:38:00;;;;;;;;;;;;;;;-140.72;100.00;52975.28;5060254;28;19990;-71
2023/03/13 04:40:25;;;;;;;;;;;;;;;-140.72;100.00;52973.25;5074919;28;19921;-71
2023/03/13 04:42:50;;;;;;;;;;;;;;;-140.72;100.00;52987.47;5080055;28;19983;-71
2023/03/13 04:45:15;;;;;;;;;;;;;;;-140.72;100.00;53003.69;5082866;28;19921;-71
2023/03/13 04:47:41;;;;;;;;;;;;;;;-140.72;100.00;53009.78;5062368;28;19939;-70
2023/03/13 04:50:06;;;;;;;;;;;;;;;-140.72;100.00;52999.66;5063436;28;19916;-71
2023/03/13 04:52:31;;;;;;;;;;;;;;;-140.72;100.00;52999.66;5071512;28;20019;-71
2023/03/13 04:54:56;;;;;;;;;;;;;;;-140.72;100.00;53007.75;5067648;28;19924;-71
2023/03/13 04:57:22;;;;;;;;;;;;;;;-140.72;100.00;52983.41;5102574;28;20302;-70
2023/03/13 04:59:47;;;;;;;;;;;;;;;-140.72;100.00;52985.44;5103497;28;19939;-71
2023/03/13 05:02:12;;;;;;;;;;;;;;;-140.72;100.00;52995.59;5078392;28;19917;-71
2023/03/13 05:04:38;;;;;;;;;;;;;;;-140.72;100.00;52959.06;5069656;28;19926;-71
2023/03/13 05:07:03;;;;;;;;;;;;;;;-140.72;100.00;53019.94;5067043;28;19921;-71
2023/03/13 05:09:28;;;;;;;;;;;;;;;-140.72;100.00;52985.44;5065906;28;19920;-71
2023/03/13 05:11:53;;;;;;;;;;;;;;;-140.72;100.00;52989.50;5065211;28;20411;-71
2023/03/13 05:14:19;;;;;;;;;;;;;;;-140.72;100.00;52999.66;5063687;28;19917;-71
2023/03/13 05:16:44;;;;;;;;;;;;;;;-140.72;100.00;52991.53;5067295;28;20003;-71
2023/03/13 05:19:09;;;;;;;;;;;;;;;-140.72;100.00;52940.78;5072250;28;19920;-71
2023/03/13 05:21:34;;;;;;;;;;;;;;;-140.72;100.00;52955.00;5067306;28;20015;-71
2023/03/13 05:23:59;;;;;;;;;;;;;;;-140.72;100.00;52993.56;5063949;28;19951;-71
2023/03/13 05:26:24;;;;;;;;;;;;;;;-140.72;100.00;52983.41;5060665;28;19917;-71
2023/03/13 05:28:50;;;;;;;;;;;;;;;-140.72;100.00;52963.13;5056003;28;19978;-74
2023/03/13 05:31:15;;;;;;;;;;;;;;;-140.72;100.00;52924.56;5067956;28;19924;-71
2023/03/13 05:33:40;;;;;;;;;;;;;;;-140.72;100.00;52985.44;5064785;28;19916;-71
2023/03/13 05:36:06;;;;;;;;;;;;;;;-140.72;100.00;52999.66;5092290;28;20014;-71
2023/03/13 05:38:31;;;;;;;;;;;;;;;-140.72;100.00;52944.84;5068834;28;19951;-70
2023/03/13 05:40:56;;;;;;;;;;;;;;;-140.72;100.00;52971.22;5063644;28;19928;-71
2023/03/13 05:43:21;;;;;;;;;;;;;;;-140.72;100.00;52959.06;5061069;28;19916;-71
2023/03/13 05:45:46;;;;;;;;;;;;;;;-140.72;100.00;52971.22;5058570;28;19924;-70
2023/03/13 05:48:12;;;;;;;;;;;;;;;-140.72;100.00;52963.13;5100854;28;19924;-71
2023/03/13 05:50:37;;;;;;;;;;;;;;;-140.72;100.00;52950.94;5064823;28;19928;-72
2023/03/13 05:53:02;;;;;;;;;;;;;;;-140.72;100.00;52961.09;5062409;28;20342;-71
2023/03/13 05:55:27;;;;;;;;;;;;;;;-140.72;100.00;52971.22;5067135;28;19920;-71
2023/03/13 05:57:53;;;;;;;;;;;;;;;-140.72;100.00;52971.22;5073282;28;19916;-72
2023/03/13 06:00:18;;;;;;;;;;;;;;;-140.72;100.00;52979.34;5055272;28;19997;-70
2023/03/13 06:02:43;;;;;;;;;;;;;;;-140.72;100.00;52922.53;5086343;28;19928;-72
2023/03/13 06:05:09;;;;;;;;;;;;;;;-140.72;100.00;53001.66;5065944;28;19916;-71
2023/03/13 06:07:34;;;;;;;;;;;;;;;-140.72;100.00;52955.00;5058983;28;19917;-71
2023/03/13 06:09:59;;;;;;;;;;;;;;;-140.72;100.00;52991.53;5073207;28;19974;-70
2023/03/13 06:12:25;;;;;;;;;;;;;;;-140.72;100.00;52957.03;5095179;28;19932;-72
2023/03/13 06:14:50;;;;;;;;;;;;;;;-140.72;100.00;52963.13;5063569;28;19927;-71
2023/03/13 06:17:15;;;;;;;;;;;;;;;-140.72;100.00;52993.56;5068159;28;19924;-71
2023/03/13 06:19:40;;;;;;;;;;;;;;;-140.72;100.00;52979.34;5072660;28;20012;-70
2023/03/13 06:22:05;;;;;;;;;;;;;;;-140.72;100.00;52926.59;5070000;28;19992;-70
2023/03/13 06:24:31;;;;;;;;;;;;;;;-140.72;100.00;52963.13;5064684;28;20379;-70
2023/03/13 06:26:56;;;;;;;;;;;;;;;-140.72;100.00;52999.66;5067513;28;20541;-70
2023/03/13 06:29:22;;;;;;;;;;;;;;;-140.72;100.00;52950.94;5066339;28;19931;-70
2023/03/13 06:31:48;;;;;;;;;;;;;;;-140.72;100.00;52969.19;5068007;28;20004;-70
2023/03/13 06:34:13;;;;;;;;;;;;;;;-140.72;100.00;52991.53;5066846;28;20946;-70
2023/03/13 06:36:38;;;;;;;;;;;;;;;-140.72;100.00;53019.94;5059430;28;19972;-71
2023/03/13 06:39:04;;;;;;;;;;;;;;;-140.72;100.00;52975.28;5072842;28;19917;-70
2023/03/13 06:41:29;;;;;;;;;;;;;;;-140.72;100.00;52983.41;5074785;28;19920;-70
2023/03/13 06:43:54;;;;;;;;;;;;;;;-140.72;100.00;52987.47;5065879;28;19944;-70
2023/03/13 06:46:21;;;;;;;;;;;;;;;-140.72;100.00;52979.34;5072199;28;19923;-70
2023/03/13 06:48:47;;;;;;;;;;;;;;;-140.72;100.00;52983.41;5075746;28;19966;-70
2023/03/13 06:51:13;;;;;;;;;;;;;;;-140.72;100.00;52999.66;5074471;28;19921;-75
2023/03/13 06:53:38;;;;;;;;;;;;;;;-140.72;100.00;52999.66;5073917;28;19939;-73
2023/03/13 06:56:04;;;;;;;;;;;;;;;-140.72;100.00;53001.66;5100611;28;19924;-71
2023/03/13 06:58:29;;;;;;;;;;;;;;;-140.72;100.00;53003.69;5071822;28;20014;-77
2023/03/13 07:00:54;;;;;;;;;;;;;;;-140.72;100.00;52989.50;5064408;28;19921;-70
2023/03/13 07:03:19;;;;;;;;;;;;;;;-140.72;100.00;52985.44;5099227;28;20415;-72
2023/03/13 07:05:47;;;;;;;;;;;;;;;-140.72;100.00;52991.53;5064217;28;19987;-70
2023/03/13 07:08:12;;;;;;;;;;;;;;;-140.72;100.00;52985.44;5070846;28;19966;-70
2023/03/13 07:10:37;;;;;;;;;;;;;;;-140.72;100.00;52946.88;5073382;28;20302;-70
2023/03/13 07:13:02;;;;;;;;;;;;;;;-140.72;100.00;52993.56;5071607;28;19983;-70
2023/03/13 07:15:28;;;;;;;;;;;;;;;-140.72;100.00;53032.13;5068106;28;19916;-70
2023/03/13 07:17:55;;;;;;;;;;;;;;;-140.72;100.00;52955.00;5060671;28;19925;-70
2023/03/13 07:20:20;;;;;;;;;;;;;;;-140.72;100.00;52971.22;5057026;28;19999;-70
2023/03/13 07:22:49;;;;;;;;;;;;;;;-140.72;100.00;53015.88;5072077;28;19926;-70
2023/03/13 07:25:15;;;;;;;;;;;;;;;-140.72;100.00;52991.53;5086282;28;20389;-70
2023/03/13 07:27:40;;;;;;;;;;;;;;;-140.72;100.00;52993.56;5066432;28;20022;-70
2023/03/13 07:30:05;;;;;;;;;;;;;;;-140.72;100.00;52989.50;5071990;28;19917;-70
2023/03/13 07:32:32;;;;;;;;;;;;;;;-140.72;100.00;52991.53;5070961;28;19965;-73
2023/03/13 07:34:57;;;;;;;;;;;;;;;-140.72;100.00;52959.06;5077111;28;19927;-73
2023/03/13 07:37:22;;;;;;;;;;;;;;;-140.72;100.00;53013.84;5074363;28;19921;-72
2023/03/13 07:39:47;;;;;;;;;;;;;;;-140.72;100.00;53015.88;5087726;28;19974;-74
2023/03/13 07:42:12;;;;;;;;;;;;;;;-140.72;100.00;52967.16;5088965;28;19916;-72
2023/03/13 07:44:38;;;;;;;;;;;;;;;-140.72;100.00;53005.72;5069003;28;19928;-71
2023/03/13 07:47:03;;;;;;;;;;;;;;;-140.72;100.00;52965.16;5109119;28;19981;-71
2023/03/13 07:49:28;;;;;;;;;;;;;;;-140.72;100.00;52934.69;5068409;28;19921;-70
2023/03/13 07:51:53;;;;;;;;;;;;;;;-140.72;100.00;52979.34;5073282;28;19926;-71
2023/03/13 07:54:19;;;;;;;;;;;;;;;-140.72;100.00;52973.25;5071363;28;19933;-71
2023/03/13 07:56:44;;;;;;;;;;;;;;;-140.72;100.00;52983.41;5085302;28;19916;-70
2023/03/13 07:59:09;;;;;;;;;;;;;;;-140.72;100.00;52999.66;5080966;28;19936;-72
2023/03/13 08:01:35;;;;;;;;;;;;;;;-140.72;100.00;52977.31;5069073;28;19921;-70
2023/03/13 08:04:00;;;;;;;;;;;;;;;-140.72;100.00;52961.09;5061463;28;19920;-70
2023/03/13 08:06:25;;;;;;;;;;;;;;;-140.72;100.00;52987.47;5064642;28;19924;-70
2023/03/13 08:08:51;;;;;;;;;;;;;;;-140.72;100.00;52971.22;5055626;28;19923;-70
2023/03/13 08:11:16;;;;;;;;;;;;;;;-140.72;100.00;52957.03;5064354;28;19969;-70
2023/03/13 08:13:41;;;;;;;;;;;;;;;-140.72;100.00;53015.88;5075346;28;19985;-70
2023/03/13 08:16:08;;;;;;;;;;;;;;;-140.72;100.00;52991.53;5075155;28;19920;-70
2023/03/13 08:18:34;;;;;;;;;;;;;;;-140.72;100.00;53009.78;5075069;28;20440;-70
2023/03/13 08:21:00;;;;;;;;;;;;;;;-140.72;100.00;52983.41;5071199;28;20303;-70
2023/03/13 08:23:36;;;;;;;;;;;;;;;-140.72;100.00;52975.28;5074789;28;19974;-70
2023/03/13 08:26:03;;;;;;;;;;;;;;;-140.72;100.00;52971.22;5090373;28;20023;-70
2023/03/13 08:28:28;;;;;;;;;;;;;;;-140.72;100.00;52948.91;5072795;28;19962;-70
2023/03/13 08:30:53;;;;;;;;;;;;;;;-140.72;100.00;52979.34;5060985;28;19920;-70
2023/03/13 08:33:20;;;;;;;;;;;;;;;-140.72;100.00;52957.03;5074381;28;19924;-70
2023/03/13 08:35:46;;;;;;;;;;;;;;;-140.72;100.00;52957.03;5076222;28;19916;-70
2023/03/13 08:38:11;;;;;;;;;;;;;;;-140.72;100.00;52938.75;5077425;28;19916;-70
2023/03/13 08:40:36;;;;;;;;;;;;;;;-140.72;100.00;52971.22;5074832;28;20009;-70
2023/03/13 08:43:01;;;;;;;;;;;;;;;-140.72;100.00;52983.41;5081651;28;20293;-70
2023/03/13 08:45:27;;;;;;;;;;;;;;;-140.72;100.00;52967.16;5078204;28;20000;-70
2023/03/13 08:47:52;;;;;;;;;;;;;;;-140.72;100.00;52963.13;5079432;28;20402;-70
2023/03/13 08:50:18;;;;;;;;;;;;;;;-140.72;100.00;52906.28;5068773;28;20305;-70
2023/03/13 08:52:50;;;;;;;;;;;;;;;-140.72;100.00;52938.75;5060541;28;20493;-70
2023/03/13 08:55:15;;;;;;;;;;;;;;;-140.72;100.00;52981.38;5069994;28;19920;-70
2023/03/13 08:57:40;;;;;;;;;;;;;;;-140.72;100.00;52920.50;5073459;28;20436;-71
2023/03/13 09:00:06;;;;;;;;;;;;;;;-140.72;100.00;52910.34;5073834;28;19920;-70
2023/03/13 09:02:31;;;;;;;;;;;;;;;-140.72;100.00;52898.16;5073199;28;19946;-71
2023/03/13 09:04:57;;;;;;;;;;;;;;;-140.72;100.00;52920.50;5088341;28;19924;-70
2023/03/13 09:07:23;;;;;;;;;;;;;;;-140.72;100.00;52886.00;5070678;28;19921;-72
2023/03/13 09:09:48;;;;;;;;;;;;;;;-140.72;100.00;52896.16;5062426;28;19970;-70
2023/03/13 09:12:13;;;;;;;;;;;;;;;-140.72;100.00;52886.00;5063323;28;19957;-70
2023/03/13 09:14:38;;;;;;;;;;;;;;;-140.72;100.00;52881.94;5067609;28;19917;-71
2023/03/13 09:17:04;;;;;;;;;;;;;;;-140.72;100.00;52900.19;5074164;28;19916;-71
2023/03/13 09:19:29;;;;;;;;;;;;;;;-140.72;100.00;52910.34;5073513;28;19927;-71
2023/03/13 09:21:54;;;;;;;;;;;;;;;-140.72;100.00;52900.19;5073336;28;19916;-71
2023/03/13 09:24:19;;;;;;;;;;;;;;;-140.72;100.00;52873.81;5061000;28;19916;-71
2023/03/13 09:26:45;;;;;;;;;;;;;;;-140.72;100.00;52879.91;5073987;28;19978;-70
2023/03/13 09:29:10;;;;;;;;;;;;;;;-140.72;100.00;52849.47;5102613;28;19923;-70
2023/03/13 09:31:37;;;;;;;;;;;;;;;-140.72;100.00;52910.34;5064099;28;20011;-70
2023/03/13 09:34:02;;;;;;;;;;;;;;;-140.72;100.00;52888.03;5067256;28;19960;-71
2023/03/13 09:36:28;;;;;;;;;;;;;;;-140.72;100.00;52920.50;5073884;28;19955;-70
2023/03/13 09:38:55;;;;;;;;;;;;;;;-140.72;100.00;52908.31;5071351;28;19924;-71
2023/03/13 09:41:23;;;;;;;;;;;;;;;-140.72;100.00;52883.97;5069465;28;19916;-70
2023/03/13 09:43:54;;;;;;;;;;;;;;;-140.72;100.00;52849.47;5065038;28;19972;-71
2023/03/13 09:46:19;;;;;;;;;;;;;;;-140.72;100.00;52902.22;5061242;28;19952;-71
2023/03/13 09:48:47;;;;;;;;;;;;;;;-140.72;100.00;52875.84;5073423;28;20362;-71
2023/03/13 09:51:28;;;;;;;;;;;;;;;-140.72;100.00;52898.16;5064778;28;19924;-71
2023/03/13 09:54:04;;;;;;;;;;;;;;;-140.72;100.00;52879.91;5073373;28;19916;-71
2023/03/13 09:56:32;;;;;;;;;;;;;;;-140.72;100.00;52883.97;5067433;28;19920;-71
2023/03/13 09:59:01;;;;;;;;;;;;;;;-140.72;100.00;52892.09;5070650;28;19988;-70
2023/03/13 10:01:30;;;;;;;;;;;;;;;-140.72;100.00;52912.38;5073347;28;19924;-71
2023/03/13 10:04:06;;;;;;;;;;;;;;;-140.72;100.00;52857.59;5068680;28;20365;-70
2023/03/13 10:06:39;;;;;;;;;;;;;;;-140.72;100.00;52855.56;5063887;28;19921;-71
2023/03/13 10:09:14;;;;;;;;;;;;;;;-140.72;100.00;52851.50;5069231;28;19923;-70
2023/03/13 10:11:45;;;;;;;;;;;;;;;-140.72;100.00;52853.53;5072206;28;19921;-71
2023/03/13 10:14:16;;;;;;;;;;;;;;;-140.72;100.00;52851.50;5072864;28;20240;-71
2023/03/13 10:16:44;;;;;;;;;;;;;;;-140.72;100.00;52871.78;5072092;28;19917;-71
2023/03/13 10:19:26;;;;;;;;;;;;;;;-140.72;100.00;52835.25;5064814;28;20016;-71
2023/03/13 10:21:53;;;;;;;;;;;;;;;-140.72;100.00;52861.66;5054622;28;19917;-70
2023/03/13 10:24:32;;;;;;;;;;;;;;;-140.72;100.00;52851.50;5057946;28;19924;-70
2023/03/13 10:26:57;;;;;;;;;;;;;;;-140.72;100.00;52865.69;5066601;28;19971;-71
2023/03/13 10:29:27;;;;;;;;;;;;;;;-140.72;100.00;52845.41;5064096;28;19952;-71
2023/03/13 10:31:55;;;;;;;;;;;;;;;-140.72;100.00;52845.41;5066609;28;19917;-71
2023/03/13 10:34:21;;;;;;;;;;;;;;;-140.72;100.00;52857.59;5065777;28;19962;-71
2023/03/13 10:36:48;;;;;;;;;;;;;;;-140.72;100.00;52859.63;5065519;28;19920;-71
2023/03/13 10:39:14;;;;;;;;;;;;;;;-140.72;100.00;52812.94;5070870;28;19962;-71
2023/03/13 10:41:39;;;;;;;;;;;;;;;-140.72;75.56;52829.19;5057306;28;20003;-71
2023/03/13 10:44:07;;;;;;;;;;;;;;;-140.72;53.70;52821.06;5067301;28;20390;-71
2023/03/13 10:46:33;;;;;;;;;;;;;;;-140.72;36.60;52796.72;5082665;28;19920;-71
2023/03/13 10:49:03;;;;;;;;;;;;;;;-140.72;23.13;52825.13;5079235;28;20533;-71
2023/03/13 10:51:36;;;;;;;;;;;;;;;-140.72;11.22;52792.66;5086577;28;19927;-71
2023/03/13 10:54:11;;;;;;;;;;;;;;;-140.72;0.00;52778.44;5078721;28;20069;-71
2023/03/13 10:56:37;;;;;;;;;;;;;;;-140.72;0.00;52766.25;5067352;28;19916;-71
2023/03/13 10:59:02;;;;;;;;;;;;;;;-140.72;0.00;52756.13;5071001;28;20445;-71
2023/03/13 11:01:30;;;;;;;;;;;;;;;-140.72;0.00;52760.19;5072774;28;19924;-71
2023/03/13 11:03:57;;;;;;;;;;;;;;;-140.72;0.00;52727.72;5073728;28;19921;-71
2023/03/13 11:06:28;;;;;;;;;;;;;;;-140.72;0.00;52664.81;5072236;28;19928;-71
2023/03/13 11:09:02;;;;;;;;;;;;;;;-140.72;0.00;52725.69;5084971;28;19916;-71
2023/03/13 11:11:29;;;;;;;;;;;;;;;-140.72;0.00;52703.34;5094638;28;19951;-71
2023/03/13 11:14:05;;;;;;;;;;;;;;;-140.72;0.00;52715.53;5069375;28;19917;-71
2023/03/13 11:16:31;;;;;;;;;;;;;;;-140.72;0.00;52735.81;5067938;28;20282;-70
2023/03/13 11:19:15;;;;;;;;;;;;;;;-140.72;0.00;52735.81;5064704;28;19969;-71
2023/03/13 11:21:40;;;;;;;;;;;;;;;-140.72;0.00;52739.88;5054705;28;20348;-71
2023/03/13 11:24:10;;;;;;;;;;;;;;;-140.72;0.00;52782.50;5060488;28;19924;-71
2023/03/13 11:27:02;;;;;;;;;;;;;;;-140.72;0.00;52654.66;5069668;28;19917;-71
2023/03/13 11:29:38;;;;;;;;;;;;;;;-140.72;0.00;52778.44;5069774;28;19974;-71
2023/03/13 11:32:09;;;;;;;;;;;;;;;-140.72;0.00;52691.19;5065210;28;19971;-71
2023/03/13 11:34:39;;;;;;;;;;;;;;;-140.72;0.00;52658.72;5075504;28;19925;-71
2023/03/13 11:37:10;;;;;;;;;;;;;;;-140.72;0.00;52642.47;5074720;28;19920;-71
2023/03/13 11:39:41;;;;;;;;;;;;;;;-140.72;0.00;52725.69;5073749;28;20015;-71
2023/03/13 11:42:15;;;;;;;;;;;;;;;-140.72;0.00;52699.31;5074772;28;19924;-71
2023/03/13 11:44:43;;;;;;;;;;;;;;;-140.72;0.00;52634.38;5077552;28;19996;-70
2023/03/13 11:47:11;;;;;;;;;;;;;;;-140.72;0.00;52695.25;5058685;28;19929;-71
2023/03/13 11:49:45;;;;;;;;;;;;;;;-140.72;0.00;52745.97;5069374;28;19921;-71
2023/03/13 11:52:10;;;;;;;;;;;;;;;-140.72;0.00;52729.75;5067480;28;20386;-70
2023/03/13 11:54:50;;;;;;;;;;;;;;;-140.72;0.00;52689.16;5068912;28;19921;-70
2023/03/13 11:57:20;;;;;;;;;;;;;;;-140.72;0.00;52634.38;5067784;28;19921;-70
2023/03/13 11:59:58;;;;;;;;;;;;;;;-140.72;0.00;52603.94;5073377;28;19939;-70
2023/03/13 12:02:30;;;;;;;;;;;;;;;-140.72;0.00;52589.72;5055546;28;20008;-71
2023/03/13 12:05:00;;;;;;;;;;;;;;;-140.72;0.00;52583.63;5063243;28;20318;-70
2023/03/13 12:07:32;;;;;;;;;;;;;;;-140.72;0.00;52622.19;5075621;28;19921;-71
2023/03/13 12:10:00;;;;;;;;;;;;;;;-140.72;0.00;52589.72;5059858;28;19947;-71
2023/03/13 12:12:46;;;;;;;;;;;;;;;-140.72;0.00;52547.09;5069390;28;19962;-70
2023/03/13 12:15:31;;;;;;;;;;;;;;;-140.72;0.00;52650.59;5060050;28;19921;-71
2023/03/13 12:18:01;;;;;;;;;;;;;;;-140.72;0.00;52752.06;5072192;28;19921;-71
2023/03/13 12:20:35;;;;;;;;;;;;;;;-140.72;0.00;52672.91;5088873;28;20385;-70
2023/03/13 12:23:03;;;;;;;;;;;;;;;-140.72;0.00;52756.13;5068728;28;19940;-70